Terminal Aerodrome Forecast
Issued by NWS

Home | Current Version | Previous Version | Text Only | Print | Product List | Glossary On
Versions: 1 2 3 4 5 6 7 8 9 10 11 12 13 14 15
322
FTUS44 KLZK 231225 AAA
TAFBPK
TAF AMD
KBPK 231225Z 2312/2412 00000KT P6SM SCT100 BKN250
      TEMPO 2312/2314 5SM BR
     FM231500 14006KT P6SM VCTS SCT025CB BKN100
     FM240000 14004KT P6SM OVC250
      TEMPO 2409/2412 3SM BR SCT005=

USA.gov is the U.S. government's official web portal to all federal, state and local government web resources and services.